This is the latest recevied weather packets stored in our database for station/object SQ5JP-4. If no packets are shown the sender has not sent any weather packets the latest 10 day(s).
| Time | Temp. | Humidity | Pressure | Rain* | Wind** | Luminosity | Snow |
|---|---|---|---|---|---|---|---|
| 1777339781 | -1.67° C | 100% | 1004.8 hPa | - | - | - | - |
| 1777338881 | -1.11° C | 100% | 1004.7 hPa | - | - | - | - |
| 1777337981 | -1.11° C | 100% | 1004.6 hPa | - | - | - | - |
| 1777337081 | -0.56° C | 100% | 1004.6 hPa | - | - | - | - |
| 1777336181 | -0.56° C | 100% | 1004.5 hPa | - | - | - | - |
| 1777335281 | -0.56° C | 100% | 1004.4 hPa | - | - | - | - |
| 1777334380 | 0° C | 100% | 1004.5 hPa | - | - | - | - |
| 1777333480 | 0.56° C | 92% | 1004.4 hPa | - | - | - | - |
| 1777332581 | 1.11° C | 84% | 1004.3 hPa | - | - | - | - |
| 1777331680 | 2.22° C | 77% | 1004.1 hPa | - | - | - | - |
| 1777330780 | 2.22° C | 76% | 1004 hPa | - | - | - | - |
| 1777329880 | 2.22° C | 74% | 1004 hPa | - | - | - | - |
| 1777328080 | 2.78° C | 66% | 1003.7 hPa | - | - | - | - |
| 1777327180 | 3.33° C | 62% | 1003.7 hPa | - | - | - | - |
| 1777326279 | 3.89° C | 60% | 1003.5 hPa | - | - | - | - |
| 1777325379 | 3.89° C | 59% | 1003.4 hPa | - | - | - | - |
| 1777324479 | 4.44° C | 58% | 1003.4 hPa | - | - | - | - |
| 1777323579 | 4.44° C | 58% | 1003.3 hPa | - | - | - | - |
| 1777322678 | 4.44° C | 59% | 1003.2 hPa | - | - | - | - |
| 1777321778 | 5° C | 59% | 1003.1 hPa | - | - | - | - |
| 1777319980 | 6.11° C | 56% | 1002.9 hPa | - | - | - | - |
| 1777319080 | 6.67° C | 55% | 1002.8 hPa | - | - | - | - |
| 1777318180 | 6.11° C | 56% | 1002.7 hPa | - | - | - | - |
| 1777317279 | 5.56° C | 59% | 1002.6 hPa | - | - | - | - |
| 1777316379 | 6.11° C | 56% | 1002.5 hPa | - | - | - | - |
* Rain since midnight (hover to see other rain measurements)
** Current wind speed in m/s (hover to see current wind gust speed)